createdAt,value
2022-11-05T00:05:33.415Z,3.70
2022-11-05T00:11:56.156Z,4.30
2022-11-05T00:18:20.715Z,4.30
2022-11-05T00:24:43.808Z,3.60
2022-11-05T00:31:08.455Z,4.20
2022-11-05T00:37:32.760Z,3.60
2022-11-05T00:43:55.816Z,4.00
2022-11-05T00:50:20.189Z,4.10
2022-11-05T00:56:44.516Z,3.90
2022-11-05T01:03:09.282Z,4.40
2022-11-05T01:09:33.850Z,3.80
2022-11-05T01:15:58.199Z,3.80
2022-11-05T01:22:22.502Z,4.00
2022-11-05T01:28:46.883Z,4.30
2022-11-05T01:35:11.200Z,4.20
2022-11-05T01:41:35.749Z,4.30
2022-11-05T01:48:12.040Z,4.10
2022-11-05T01:54:51.549Z,4.40
2022-11-05T02:01:16.021Z,4.10
2022-11-05T02:07:41.054Z,3.80
2022-11-05T02:14:00.378Z,4.40
2022-11-05T02:20:52.146Z,4.20
2022-11-05T02:27:44.243Z,4.60
2022-11-05T02:34:14.554Z,4.50
2022-11-05T02:40:50.803Z,4.70
2022-11-05T02:47:18.002Z,5.10
2022-11-05T02:54:00.838Z,4.50
2022-11-05T03:00:25.184Z,4.00
2022-11-05T03:07:06.391Z,4.40
2022-11-05T03:13:30.855Z,4.40
2022-11-05T03:19:58.358Z,3.90
2022-11-05T03:26:22.748Z,4.80
2022-11-05T03:32:47.043Z,4.40
2022-11-05T03:39:14.212Z,4.30
2022-11-05T03:45:38.615Z,4.50
2022-11-05T03:52:21.091Z,4.40
2022-11-05T03:58:45.401Z,4.90
2022-11-05T04:05:09.632Z,4.60
2022-11-05T04:11:32.283Z,4.50
2022-11-05T04:17:56.582Z,4.40
2022-11-05T04:24:29.981Z,5.10
2022-11-05T04:30:54.421Z,4.40
2022-11-05T04:37:18.703Z,4.40
2022-11-05T04:43:43.021Z,4.30
2022-11-05T04:50:07.302Z,4.10
2022-11-05T04:56:31.648Z,4.30
2022-11-05T05:02:56.154Z,4.10
2022-11-05T05:09:20.496Z,4.70
2022-11-05T05:15:45.018Z,4.80
2022-11-05T05:22:09.418Z,4.30
2022-11-05T05:28:33.806Z,3.80
2022-11-05T05:34:58.130Z,4.10
2022-11-05T05:41:21.402Z,3.80
2022-11-05T05:47:45.825Z,3.90
2022-11-05T05:54:10.249Z,4.60
2022-11-05T06:00:34.499Z,4.30
2022-11-05T06:07:01.817Z,4.30
2022-11-05T06:13:26.089Z,4.80
2022-11-05T06:19:50.352Z,3.80
2022-11-05T06:26:14.655Z,4.30
2022-11-05T06:32:39.079Z,5.00
2022-11-05T06:39:03.326Z,4.40
2022-11-05T06:45:27.691Z,4.20
2022-11-05T06:51:52.037Z,4.50
2022-11-05T06:58:16.404Z,4.60
2022-11-05T07:04:40.734Z,4.40
2022-11-05T07:11:05.160Z,4.00
2022-11-05T07:17:29.402Z,4.20
2022-11-05T07:23:53.753Z,4.50
2022-11-05T07:30:16.724Z,4.70
2022-11-05T07:36:36.401Z,4.60
2022-11-05T07:43:00.749Z,4.50
2022-11-05T07:49:25.052Z,4.70
2022-11-05T07:55:49.429Z,5.10
2022-11-05T08:02:13.988Z,4.80
2022-11-05T08:08:38.496Z,4.50
2022-11-05T08:15:02.815Z,4.40
2022-11-05T08:21:27.151Z,4.60
2022-11-05T08:27:51.568Z,4.00
2022-11-05T08:34:15.876Z,4.00
2022-11-05T08:40:40.111Z,4.60
2022-11-05T08:47:04.463Z,4.90
2022-11-05T08:53:28.776Z,4.90
2022-11-05T08:59:52.490Z,4.70
2022-11-05T09:06:16.798Z,5.20
2022-11-05T09:12:41.237Z,5.00
2022-11-05T09:19:05.616Z,4.90
2022-11-05T09:25:29.877Z,5.30
2022-11-05T09:31:54.248Z,5.30
2022-11-05T09:38:18.536Z,4.90
2022-11-05T09:44:55.067Z,4.90
2022-11-05T09:51:31.589Z,5.40
2022-11-05T09:57:55.968Z,5.20
2022-11-05T10:04:20.283Z,5.10
2022-11-05T10:10:47.553Z,5.40
2022-11-05T10:17:32.736Z,5.70
2022-11-05T10:24:02.177Z,5.80
2022-11-05T10:30:26.503Z,5.70
2022-11-05T10:36:51.033Z,5.70
2022-11-05T10:43:26.700Z,5.50
2022-11-05T10:49:51.105Z,5.90
2022-11-05T10:56:18.370Z,6.00
2022-11-05T11:02:42.806Z,6.30
2022-11-05T11:09:10.081Z,5.30
2022-11-05T11:15:32.829Z,6.10
2022-11-05T11:22:00.199Z,5.50
2022-11-05T11:28:27.311Z,5.70
2022-11-05T11:34:57.159Z,6.30
2022-11-05T11:41:24.361Z,5.60
2022-11-05T11:47:51.600Z,5.60
2022-11-05T11:54:23.895Z,5.40
2022-11-05T12:00:51.615Z,6.10
2022-11-05T12:07:34.077Z,6.30
2022-11-05T12:14:01.006Z,6.20
2022-11-05T12:20:45.415Z,6.30
2022-11-05T12:27:32.762Z,5.50
2022-11-05T12:34:27.504Z,6.30
2022-11-05T12:40:54.640Z,5.90
2022-11-05T12:47:19.275Z,6.20
2022-11-05T12:54:03.994Z,5.20
2022-11-05T13:00:27.279Z,5.70
2022-11-05T13:06:54.548Z,6.00
2022-11-05T13:13:19.170Z,5.40
2022-11-05T13:19:52.157Z,6.30
2022-11-05T13:26:19.697Z,6.00
2022-11-05T13:32:42.556Z,6.50
2022-11-05T13:39:21.995Z,5.90
2022-11-05T13:46:06.046Z,5.50
2022-11-05T13:52:36.502Z,5.60
2022-11-05T13:59:05.743Z,5.70
2022-11-05T14:05:30.141Z,6.10
2022-11-05T14:12:00.290Z,6.00
2022-11-05T14:18:36.688Z,5.90
2022-11-05T14:25:03.772Z,6.20
2022-11-05T14:32:07.380Z,6.20
2022-11-05T14:38:34.068Z,5.80
2022-11-05T14:44:59.084Z,5.90
2022-11-05T14:51:35.479Z,6.00
2022-11-05T14:57:57.913Z,6.50
2022-11-05T15:04:37.359Z,5.90
2022-11-05T15:11:01.679Z,6.10
2022-11-05T15:17:26.107Z,6.60
2022-11-05T15:23:50.411Z,6.30
2022-11-05T15:30:17.819Z,5.70
2022-11-05T15:36:40.367Z,6.80
2022-11-05T15:43:04.694Z,6.60
2022-11-05T15:49:28.985Z,6.50
2022-11-05T15:56:11.567Z,5.90
2022-11-05T16:02:36.088Z,5.90
2022-11-05T16:09:03.454Z,6.40
2022-11-05T16:15:36.567Z,6.90
2022-11-05T16:22:00.852Z,5.80
2022-11-05T16:28:25.106Z,7.40
2022-11-05T16:34:49.590Z,6.20
2022-11-05T16:41:14.045Z,6.20
2022-11-05T16:47:38.398Z,6.10
2022-11-05T16:54:02.723Z,6.90
2022-11-05T17:00:27.110Z,6.70
2022-11-05T17:06:51.433Z,6.10
2022-11-05T17:13:15.760Z,6.70
2022-11-05T17:19:40.152Z,7.10
2022-11-05T17:26:04.640Z,6.60
2022-11-05T17:32:29.019Z,7.30
2022-11-05T17:38:53.402Z,6.90
2022-11-05T17:45:17.705Z,7.20
2022-11-05T17:51:44.984Z,7.50
2022-11-05T17:58:09.381Z,7.90
2022-11-05T18:04:33.824Z,7.10
2022-11-05T18:10:58.223Z,7.50
2022-11-05T18:17:22.681Z,7.70
2022-11-05T18:23:47.047Z,7.20
2022-11-05T18:30:11.292Z,7.90
2022-11-05T18:36:35.801Z,7.90
2022-11-05T18:43:00.102Z,8.20
2022-11-05T18:49:24.508Z,7.80
2022-11-05T18:55:49.022Z,8.00
2022-11-05T19:02:13.505Z,8.20
2022-11-05T19:08:38.088Z,8.10
2022-11-05T19:15:03.238Z,8.30
2022-11-05T19:21:27.800Z,7.80
2022-11-05T19:27:52.092Z,7.60
2022-11-05T19:34:16.315Z,7.50
2022-11-05T19:40:40.665Z,7.80
2022-11-05T19:47:07.805Z,8.60
2022-11-05T19:53:32.098Z,7.70
2022-11-05T19:59:56.635Z,7.50
2022-11-05T20:06:21.054Z,8.10
2022-11-05T20:12:45.470Z,7.20
2022-11-05T20:19:09.751Z,7.70
2022-11-05T20:25:34.078Z,7.60
2022-11-05T20:31:58.378Z,7.30
2022-11-05T20:38:22.758Z,6.20
2022-11-05T20:44:47.095Z,6.30
2022-11-05T20:51:11.447Z,6.20
2022-11-05T20:57:35.741Z,6.10
2022-11-05T21:04:00.166Z,5.70
2022-11-05T21:10:24.488Z,6.20
2022-11-05T21:16:48.761Z,5.90
2022-11-05T21:23:13.084Z,5.90
2022-11-05T21:29:37.374Z,5.80
2022-11-05T21:36:01.720Z,5.60
2022-11-05T21:42:25.975Z,5.90
2022-11-05T21:48:50.305Z,5.20
2022-11-05T21:55:13.218Z,5.70
2022-11-05T22:01:37.767Z,5.50
2022-11-05T22:07:54.656Z,5.30
2022-11-05T22:14:19.066Z,5.30
2022-11-05T22:20:43.363Z,4.90
2022-11-05T22:27:07.686Z,5.70
2022-11-05T22:33:32.101Z,5.20
2022-11-05T22:39:56.491Z,4.60
2022-11-05T22:46:20.858Z,5.50
2022-11-05T22:52:38.199Z,4.50
2022-11-05T22:59:02.487Z,4.80
2022-11-05T23:05:31.949Z,4.70
2022-11-05T23:11:56.218Z,4.40
2022-11-05T23:18:19.164Z,4.70
2022-11-05T23:24:43.321Z,4.30
2022-11-05T23:31:06.120Z,4.40
2022-11-05T23:37:29.136Z,4.40
2022-11-05T23:43:51.731Z,4.60
2022-11-05T23:50:16.268Z,4.60
2022-11-05T23:56:43.005Z,4.30
